Time;durP1;ratioP1;P1;durP2;ratioP2;P2;SDS_P1;SDS_P2;PMS_P1;PMS_P2;Temp;Humidity;BMP_temperature;BMP_pressure;BME280_temperature;BME280_humidity;BME280_pressure;Samples;Min_cycle;Max_cycle;Signal;HPM_P1;HPM_P2
2021/10/27 00:08:01;;;;;;;40.40;18.85;;;;;;;10.15;100.00;100904.87;713955;1177;114302;-75
2021/10/27 00:23:04;;;;;;;35.97;18.93;;;;;;;10.04;100.00;100912.70;713917;1177;114130;-74
2021/10/27 00:38:06;;;;;;;33.90;17.40;;;;;;;9.92;100.00;100913.64;714178;1178;114581;-74
2021/10/27 00:53:08;;;;;;;140.35;47.70;;;;;;;9.81;100.00;100912.66;713833;1177;115480;-74
2021/10/27 01:08:13;;;;;;;125.70;51.35;;;;;;;9.74;100.00;100907.98;714189;1199;114139;-74
2021/10/27 01:23:15;;;;;;;275.20;79.45;;;;;;;9.68;100.00;100922.38;713844;1202;114513;-74
2021/10/27 01:38:17;;;;;;;207.00;73.78;;;;;;;9.64;100.00;100910.47;713921;1200;115264;-74
2021/10/27 01:53:19;;;;;;;209.98;74.58;;;;;;;9.61;100.00;100902.84;713914;1200;115511;-74
2021/10/27 02:08:21;;;;;;;124.63;47.38;;;;;;;9.53;100.00;100919.13;713865;1177;114137;-75
2021/10/27 02:23:23;;;;;;;170.15;62.55;;;;;;;9.53;100.00;100902.55;713944;1200;114635;-74
2021/10/27 02:38:25;;;;;;;81.58;38.53;;;;;;;9.53;100.00;100913.03;714520;1200;115221;-74
2021/10/27 02:53:28;;;;;;;65.98;33.25;;;;;;;9.40;100.00;100926.21;714173;1200;114743;-75
2021/10/27 03:08:30;;;;;;;157.20;51.75;;;;;;;9.35;100.00;100916.06;714275;1202;115182;-74
2021/10/27 03:23:33;;;;;;;134.60;51.23;;;;;;;9.27;100.00;100931.50;713859;1186;114058;-74
2021/10/27 03:38:35;;;;;;;67.87;33.20;;;;;;;9.17;100.00;100926.07;714400;1200;115276;-76
2021/10/27 03:53:37;;;;;;;46.23;25.43;;;;;;;9.25;100.00;100926.38;716097;1200;114516;-74
2021/10/27 04:08:40;;;;;;;41.28;21.83;;;;;;;9.24;100.00;100929.11;714346;1185;114084;-74
2021/10/27 04:23:44;;;;;;;40.20;20.70;;;;;;;9.09;100.00;100924.03;714325;1205;114090;-76
2021/10/27 04:38:46;;;;;;;51.68;25.83;;;;;;;8.97;100.00;100917.89;714087;1202;114171;-75
2021/10/27 04:53:48;;;;;;;61.33;28.93;;;;;;;8.95;100.00;100918.95;714119;1177;114117;-74
2021/10/27 05:08:51;;;;;;;49.68;26.98;;;;;;;8.96;100.00;100910.98;713827;1203;115543;-74
2021/10/27 05:23:53;;;;;;;53.60;27.40;;;;;;;8.97;100.00;100912.66;714015;1200;114346;-74
2021/10/27 05:38:55;;;;;;;62.73;32.03;;;;;;;8.99;100.00;100909.92;713937;1185;114115;-74
2021/10/27 06:09:19;;;;;;;53.68;30.13;;;;;;;9.09;100.00;100920.56;714206;1205;114682;-76
2021/10/27 06:24:21;;;;;;;48.03;27.08;;;;;;;9.09;100.00;100944.97;713964;1202;115205;-74
2021/10/27 06:54:28;;;;;;;67.57;32.50;;;;;;;9.30;100.00;100960.06;714062;1204;114215;-69
2021/10/27 07:24:52;;;;;;;47.20;26.10;;;;;;;9.54;100.00;100961.86;714163;1177;114235;-70
2021/10/27 07:40:05;;;;;;;45.27;25.73;;;;;;;9.81;100.00;100959.00;714077;1200;115527;-70
2021/10/27 07:55:08;;;;;;;42.10;24.35;;;;;;;10.01;100.00;100943.58;713880;1200;113948;-70
2021/10/27 08:10:10;;;;;;;65.30;51.55;;;;;;;10.20;100.00;100954.34;714149;1202;115369;-71
2021/10/27 08:40:45;;;;;;;41.80;25.70;;;;;;;10.72;100.00;100957.39;714239;1205;115666;-70
2021/10/27 08:55:49;;;;;;;55.70;32.17;;;;;;;11.03;100.00;100952.33;714764;1205;114600;-70
2021/10/27 10:12:11;;;;;;;36.93;23.18;;;;;;;12.75;100.00;100964.55;714459;1201;114470;-69
2021/10/27 10:27:14;;;;;;;38.38;22.10;;;;;;;12.67;100.00;100962.58;713943;1203;114595;-69
2021/10/27 11:44:47;;;;;;;37.68;22.05;;;;;;;12.64;100.00;100952.30;714133;1202;115769;-71
2021/10/27 11:59:51;;;;;;;38.08;21.80;;;;;;;12.66;100.00;100945.12;715279;1185;114324;-72
2021/10/27 12:30:16;;;;;;;46.57;23.97;;;;;;;12.71;100.00;100935.02;714068;1200;114615;-72
2021/10/27 12:45:31;;;;;;;47.03;24.98;;;;;;;12.81;100.00;100928.00;714273;1181;114915;-72
2021/10/27 13:16:09;;;;;;;28.90;17.45;;;;;;;13.07;100.00;100893.25;714550;1200;116085;-73
2021/10/27 13:31:15;;;;;;;31.43;17.78;;;;;;;13.25;100.00;100895.20;714835;1200;114500;-72
2021/10/27 14:17:02;;;;;;;20.78;13.03;;;;;;;13.18;100.00;100888.83;714407;1182;116098;-73
2021/10/27 16:03:57;;;;;;;36.10;23.67;;;;;;;13.37;100.00;100973.20;714419;1200;115204;-70
2021/10/27 16:19:00;;;;;;;22.48;15.13;;;;;;;13.41;100.00;100969.31;714315;1188;114418;-70
2021/10/27 16:34:03;;;;;;;29.13;16.07;;;;;;;13.41;100.00;100956.14;714160;1201;114378;-72
2021/10/27 16:49:06;;;;;;;22.28;13.03;;;;;;;13.39;100.00;100962.52;714473;1177;115048;-72
2021/10/27 17:04:09;;;;;;;26.15;15.85;;;;;;;13.35;100.00;100961.91;714537;1176;114925;-71
2021/10/27 17:19:12;;;;;;;39.58;20.30;;;;;;;13.33;100.00;100971.78;714345;1202;114842;-73
2021/10/27 17:34:14;;;;;;;28.40;15.70;;;;;;;13.29;100.00;100957.21;714668;1178;114669;-73
2021/10/27 17:49:36;;;;;;;27.88;12.70;;;;;;;13.30;100.00;100958.85;714825;1179;114491;-75
2021/10/27 18:04:39;;;;;;;25.15;12.38;;;;;;;13.34;100.00;100957.61;714738;1183;114778;-72
2021/10/27 18:19:51;;;;;;;20.43;11.88;;;;;;;13.36;100.00;100965.40;714684;1200;115076;-72
2021/10/27 18:50:17;;;;;;;17.83;11.00;;;;;;;13.38;100.00;100982.77;714611;1176;114295;-71
2021/10/27 19:20:42;;;;;;;18.98;11.05;;;;;;;13.22;100.00;100972.70;714606;1177;114583;-74
2021/10/27 21:23:30;;;;;;;17.63;8.37;;;;;;;13.37;100.00;101014.51;714243;1177;114209;-75
2021/10/27 21:53:53;;;;;;;14.40;9.53;;;;;;;13.37;100.00;101025.90;714043;1202;114705;-74
2021/10/27 22:08:56;;;;;;;13.55;8.55;;;;;;;13.40;100.00;101033.52;714732;1177;114163;-76
2021/10/27 22:23:59;;;;;;;16.35;9.60;;;;;;;13.33;100.00;101024.48;714160;1202;114277;-75
2021/10/27 22:39:02;;;;;;;12.03;7.45;;;;;;;13.35;100.00;101032.24;714301;1203;114458;-76
2021/10/27 22:54:05;;;;;;;12.35;7.50;;;;;;;13.37;100.00;101038.22;715506;1200;115435;-74
